Time;durP1;ratioP1;P1;durP2;ratioP2;P2;SDS_P1;SDS_P2;PMS_P1;PMS_P2;Temp;Humidity;BMP_temperature;BMP_pressure;BME280_temperature;BME280_humidity;BME280_pressure;Samples;Min_cycle;Max_cycle;Signal;HPM_P1;HPM_P2
2022/05/04 00:01:32;;;;;;;4.53;3.53;;;;;;;9.96;66.06;100498.66;5071984;28;20235;-74
2022/05/04 00:03:59;;;;;;;5.53;4.27;;;;;;;10.01;65.68;100509.88;5071310;28;20666;-74
2022/05/04 00:06:26;;;;;;;6.73;3.17;;;;;;;9.98;66.46;100504.72;5071678;28;20205;-74
2022/05/04 00:08:53;;;;;;;5.07;3.23;;;;;;;9.96;66.68;100498.66;5071642;28;20208;-74
2022/05/04 00:11:19;;;;;;;5.17;3.10;;;;;;;9.93;66.42;100492.63;5071629;28;20254;-74
2022/05/04 00:13:47;;;;;;;4.63;3.90;;;;;;;9.90;66.86;100497.88;5062243;28;20262;-74
2022/05/04 00:16:13;;;;;;;4.07;3.67;;;;;;;9.89;67.32;100488.34;5071723;28;20208;-74
2022/05/04 00:18:40;;;;;;;3.57;3.17;;;;;;;9.60;68.15;100454.03;5071544;28;20208;-74
2022/05/04 00:21:07;;;;;;;7.53;4.13;;;;;;;9.69;67.54;100454.75;5071394;28;20721;-74
2022/05/04 00:23:34;;;;;;;4.03;3.60;;;;;;;9.72;67.31;100465.13;5071415;28;20216;-74
2022/05/04 00:26:00;;;;;;;6.23;3.40;;;;;;;9.68;67.54;100471.25;5071265;28;20226;-74
2022/05/04 00:28:27;;;;;;;7.30;3.93;;;;;;;9.60;67.67;100464.44;5071345;28;20208;-74
2022/05/04 00:30:55;;;;;;;4.97;3.60;;;;;;;9.61;67.51;100463.56;5071374;28;20203;-74
2022/05/04 00:33:21;;;;;;;6.23;3.73;;;;;;;9.47;68.39;100455.94;5071443;28;20212;-74
2022/05/04 00:35:48;;;;;;;5.50;4.00;;;;;;;9.48;68.75;100432.47;5071060;28;20673;-74
2022/05/04 00:38:14;;;;;;;4.37;3.10;;;;;;;9.48;68.18;100440.28;5071306;28;20204;-74
2022/05/04 00:40:41;;;;;;;5.20;3.60;;;;;;;9.46;67.86;100449.00;5071092;28;20232;-74
2022/05/04 00:43:20;;;;;;;6.37;3.60;;;;;;;9.46;67.35;100454.22;5064795;28;20314;-74
2022/05/04 00:45:46;;;;;;;5.10;3.87;;;;;;;9.44;68.24;100456.00;5051461;28;20208;-74
2022/05/04 00:48:14;;;;;;;6.20;3.70;;;;;;;9.44;67.79;100448.19;5051467;28;20221;-74
2022/05/04 00:50:41;;;;;;;5.50;3.67;;;;;;;9.47;68.08;100445.50;5051048;28;20205;-74
2022/05/04 00:53:07;;;;;;;4.23;3.57;;;;;;;9.46;68.51;100443.81;5051207;28;20748;-74
2022/05/04 00:55:34;;;;;;;5.67;3.87;;;;;;;9.38;68.73;100443.06;5051278;28;20216;-74
2022/05/04 01:00:48;;;;;;;6.67;4.00;;;;;;;9.31;68.31;100435.28;5051116;28;20230;-74
2022/05/04 01:03:16;;;;;;;6.13;4.47;;;;;;;9.28;69.13;100429.28;5051960;28;20693;-74
2022/05/04 01:05:43;;;;;;;6.53;4.10;;;;;;;9.29;68.83;100421.44;5055326;28;20210;-74
2022/05/04 01:08:09;;;;;;;6.50;3.97;;;;;;;9.29;68.52;100425.78;5055253;28;20579;-74
2022/05/04 01:10:36;;;;;;;6.70;4.73;;;;;;;9.24;69.07;100430.22;5054823;28;20572;-74
2022/05/04 01:13:02;;;;;;;4.63;4.07;;;;;;;9.20;69.12;100421.56;5060815;28;20229;-74
2022/05/04 01:15:29;;;;;;;5.10;4.27;;;;;;;9.19;69.07;100426.81;5072598;28;20212;-74
2022/05/04 01:17:55;;;;;;;5.97;4.57;;;;;;;9.17;69.86;100419.00;5074456;28;20547;-74
2022/05/04 01:20:24;;;;;;;5.93;4.17;;;;;;;9.19;69.08;100421.59;5074625;28;20221;-74
2022/05/04 01:22:52;;;;;;;4.70;3.93;;;;;;;9.20;69.04;100431.16;5074489;28;20243;-74
2022/05/04 01:25:18;;;;;;;8.80;4.17;;;;;;;9.21;68.49;100438.91;5074663;28;20207;-74
2022/05/04 01:27:45;;;;;;;6.03;4.40;;;;;;;9.20;68.57;100441.56;5074290;28;20211;-74
2022/05/04 01:30:12;;;;;;;6.63;4.20;;;;;;;9.15;68.89;100449.41;5074316;28;20208;-74
2022/05/04 01:32:39;;;;;;;6.83;4.03;;;;;;;9.08;69.00;100442.59;5074410;28;20235;-74
2022/05/04 01:35:06;;;;;;;7.50;3.90;;;;;;;9.07;69.06;100451.25;5074195;28;20211;-74
2022/05/04 01:37:33;;;;;;;7.77;4.17;;;;;;;9.08;68.41;100453.84;5074147;28;20210;-74
2022/05/04 01:40:00;;;;;;;5.13;3.97;;;;;;;9.06;68.99;100449.56;5074202;28;20211;-74
2022/05/04 01:42:27;;;;;;;6.23;4.40;;;;;;;9.01;69.32;100443.53;5072947;28;20712;-74
2022/05/04 01:44:53;;;;;;;5.47;4.27;;;;;;;8.95;69.42;100434.91;5066942;28;20274;-74
2022/05/04 01:47:20;;;;;;;5.13;4.57;;;;;;;8.94;68.67;100437.53;5074096;28;20201;-74
2022/05/04 01:49:46;;;;;;;5.67;4.20;;;;;;;8.91;68.68;100448.84;5073800;28;20614;-74
2022/05/04 01:52:13;;;;;;;5.33;4.40;;;;;;;8.92;69.13;100447.97;5073862;28;20616;-74
2022/05/04 01:54:39;;;;;;;5.20;4.30;;;;;;;8.81;69.39;100444.63;5074069;28;20200;-74
2022/05/04 01:57:08;;;;;;;4.70;4.27;;;;;;;8.79;69.82;100448.13;5066835;28;20209;-73
2022/05/04 01:59:34;;;;;;;12.40;5.80;;;;;;;8.62;70.52;100430.97;5072174;28;20200;-74
2022/05/04 02:02:01;;;;;;;6.30;5.23;;;;;;;8.41;72.16;100377.44;5073664;28;20282;-74
2022/05/04 02:04:27;;;;;;;7.77;5.43;;;;;;;8.47;71.38;100368.69;5073901;28;20204;-74
2022/05/04 02:06:55;;;;;;;7.03;6.33;;;;;;;8.45;71.66;100362.66;5064951;28;20612;-74
2022/05/04 02:09:21;;;;;;;5.90;4.87;;;;;;;8.48;71.50;100362.59;5073360;28;20253;-74
2022/05/04 02:11:48;;;;;;;6.00;5.23;;;;;;;8.48;71.88;100362.59;5073655;28;20694;-74
2022/05/04 02:14:15;;;;;;;6.37;5.03;;;;;;;8.48;72.06;100367.81;5073480;28;20261;-74
2022/05/04 02:16:42;;;;;;;7.20;5.37;;;;;;;8.46;71.74;100359.16;5072857;28;20208;-74
2022/05/04 02:19:09;;;;;;;5.40;4.73;;;;;;;8.41;71.50;100361.81;5073363;28;20205;-74
2022/05/04 02:21:35;;;;;;;5.90;5.30;;;;;;;8.40;71.49;100362.66;5073531;28;20267;-74
2022/05/04 02:24:02;;;;;;;5.47;4.97;;;;;;;8.42;71.73;100354.88;5073173;28;20273;-74
2022/05/04 02:26:28;;;;;;;7.13;5.50;;;;;;;8.39;72.39;100347.94;5064211;28;20214;-74
2022/05/04 02:28:55;;;;;;;9.60;5.03;;;;;;;8.36;72.38;100347.97;5073060;28;20213;-74
2022/05/04 02:31:23;;;;;;;6.30;5.40;;;;;;;8.34;72.73;100345.41;5073448;28;20228;-74
2022/05/04 02:33:49;;;;;;;6.17;4.60;;;;;;;8.28;72.02;100348.03;5073525;28;20227;-74
2022/05/04 02:39:00;;;;;;;6.80;5.47;;;;;;;8.30;71.95;100348.88;5052823;28;20207;-74
2022/05/04 02:41:26;;;;;;;5.87;5.23;;;;;;;8.29;72.78;100341.97;5053215;28;20574;-74
2022/05/04 02:43:53;;;;;;;7.23;5.03;;;;;;;8.21;72.62;100350.75;5053087;28;20579;-74
2022/05/04 02:46:23;;;;;;;5.87;4.93;;;;;;;8.15;72.85;100333.47;5053099;28;20262;-74
2022/05/04 02:48:50;;;;;;;5.80;5.23;;;;;;;8.18;73.01;100337.78;5052997;28;20209;-74
2022/05/04 02:51:17;;;;;;;8.93;5.13;;;;;;;8.18;72.84;100350.78;5052798;28;20274;-74
2022/05/04 02:53:43;;;;;;;6.73;5.40;;;;;;;8.16;72.47;100358.59;5053188;28;20262;-74
2022/05/04 02:56:10;;;;;;;6.20;4.97;;;;;;;8.15;72.91;100351.69;5052840;28;20209;-73
2022/05/04 02:58:37;;;;;;;9.70;6.50;;;;;;;8.02;72.98;100353.53;5056583;28;20702;-74
2022/05/04 03:03:52;;;;;;;6.57;5.17;;;;;;;8.05;72.47;100343.13;5071658;28;20208;-74
2022/05/04 03:06:19;;;;;;;5.43;4.93;;;;;;;8.03;72.55;100341.41;5073094;28;20611;-74
2022/05/04 03:08:45;;;;;;;6.93;5.13;;;;;;;7.98;72.49;100345.78;5072296;28;20598;-74
2022/05/04 03:13:56;;;;;;;7.77;5.37;;;;;;;7.95;72.80;100333.69;5071802;28;20216;-74
2022/05/04 03:16:22;;;;;;;7.47;5.33;;;;;;;7.89;73.10;100334.59;5064242;28;20196;-74
2022/05/04 03:18:49;;;;;;;7.57;5.40;;;;;;;7.86;72.86;100331.16;5072145;28;20597;-74
2022/05/04 03:21:16;;;;;;;7.93;5.33;;;;;;;7.84;73.00;100327.72;5072217;28;20232;-74
2022/05/04 03:23:43;;;;;;;8.30;5.60;;;;;;;7.85;73.06;100332.91;5072185;28;20223;-74
2022/05/04 03:26:09;;;;;;;9.37;5.37;;;;;;;7.79;73.32;100345.97;5071888;28;20212;-74
2022/05/04 03:28:36;;;;;;;6.70;5.77;;;;;;;7.78;73.29;100331.25;5072339;28;20265;-74
2022/05/04 03:31:02;;;;;;;6.53;5.07;;;;;;;7.65;74.33;100325.31;5072497;28;20610;-74
2022/05/04 03:33:29;;;;;;;7.30;6.00;;;;;;;7.54;74.66;100307.19;5072156;28;20201;-74
2022/05/04 03:35:55;;;;;;;6.13;5.50;;;;;;;7.45;75.00;100290.84;5071979;28;20215;-74
2022/05/04 03:38:23;;;;;;;8.40;6.20;;;;;;;7.27;75.63;100274.53;5071926;28;20639;-74
2022/05/04 03:40:49;;;;;;;10.23;5.67;;;;;;;7.33;75.55;100265.81;5071949;28;20212;-74
2022/05/04 03:43:16;;;;;;;9.17;6.13;;;;;;;7.30;76.25;100239.91;5072055;28;20302;-74
2022/05/04 03:45:42;;;;;;;5.90;5.30;;;;;;;7.30;75.98;100247.69;5063552;28;20264;-74
2022/05/04 03:48:09;;;;;;;7.30;6.03;;;;;;;7.38;75.77;100255.41;5072026;28;20208;-73
2022/05/04 03:50:35;;;;;;;8.77;5.80;;;;;;;7.33;76.81;100256.31;5071881;28;20610;-74
2022/05/04 03:53:02;;;;;;;7.63;5.77;;;;;;;7.16;77.06;100240.88;5071574;28;20737;-74
2022/05/04 03:55:29;;;;;;;10.33;6.07;;;;;;;7.11;78.16;100218.44;5071841;28;20215;-74
2022/05/04 03:57:56;;;;;;;8.27;5.27;;;;;;;7.23;77.23;100223.50;5071653;28;20207;-74
2022/05/04 04:00:23;;;;;;;10.53;6.47;;;;;;;7.31;77.16;100232.13;5071751;28;20206;-74
2022/05/04 04:02:50;;;;;;;6.47;5.87;;;;;;;7.23;77.35;100236.47;5071672;28;20278;-74
2022/05/04 04:05:17;;;;;;;7.03;5.83;;;;;;;7.11;77.59;100234.84;5071738;28;20262;-74
2022/05/04 04:07:43;;;;;;;7.43;5.57;;;;;;;7.10;77.31;100222.75;5072173;28;20211;-74
2022/05/04 04:10:10;;;;;;;8.63;5.07;;;;;;;7.13;77.60;100224.47;5071390;28;20673;-74
2022/05/04 04:12:38;;;;;;;8.90;4.87;;;;;;;7.14;77.46;100234.00;5071822;28;20276;-74
2022/05/04 04:15:05;;;;;;;5.63;4.70;;;;;;;7.14;77.50;100229.66;5064696;28;20213;-74
2022/05/04 04:17:32;;;;;;;8.23;5.03;;;;;;;7.16;77.42;100225.31;5069508;28;20204;-74
2022/05/04 04:22:38;;;;;;;9.33;4.77;;;;;;;7.14;77.72;100228.78;5070372;28;20236;-74
2022/05/04 04:25:06;;;;;;;7.63;4.83;;;;;;;7.23;77.04;100248.63;5071856;28;20211;-74
2022/05/04 04:27:34;;;;;;;10.90;5.03;;;;;;;7.29;76.68;100256.34;5071887;28;20216;-74
2022/05/04 04:30:02;;;;;;;7.73;5.70;;;;;;;7.34;76.57;100270.16;5071349;28;20207;-74
2022/05/04 04:32:28;;;;;;;8.70;5.03;;;;;;;7.39;75.60;100294.34;5071401;28;20229;-74
2022/05/04 04:34:55;;;;;;;9.83;4.67;;;;;;;7.47;75.89;100302.06;5071545;28;20257;-74
2022/05/04 04:37:21;;;;;;;8.17;4.80;;;;;;;7.52;74.90;100315.88;5071687;28;20208;-74
2022/05/04 04:39:48;;;;;;;7.57;4.40;;;;;;;7.55;75.25;100326.22;5074964;28;20253;-74
2022/05/04 04:42:14;;;;;;;6.00;4.97;;;;;;;7.59;74.92;100330.56;5075437;28;20278;-74
2022/05/04 04:44:41;;;;;;;9.47;4.43;;;;;;;7.58;74.92;100326.22;5072832;28;20643;-74
2022/05/04 04:47:09;;;;;;;7.93;4.67;;;;;;;7.64;75.38;100328.75;5070157;28;20207;-75
2022/05/04 04:49:35;;;;;;;7.60;4.77;;;;;;;7.56;76.36;100314.97;5075372;28;20257;-75
2022/05/04 04:52:02;;;;;;;6.13;5.07;;;;;;;7.59;76.39;100301.09;5075297;28;20224;-74
2022/05/04 04:54:28;;;;;;;9.13;4.50;;;;;;;7.50;77.23;100289.06;5075137;28;20201;-74
2022/05/04 04:56:55;;;;;;;5.07;4.63;;;;;;;7.53;76.98;100296.81;5075298;28;20282;-74
2022/05/04 04:59:21;;;;;;;11.87;4.53;;;;;;;7.61;76.03;100295.03;5075175;28;20208;-75
2022/05/04 05:01:48;;;;;;;9.47;4.93;;;;;;;7.59;76.49;100301.09;5075033;28;20619;-75
2022/05/04 05:04:16;;;;;;;6.53;4.60;;;;;;;7.55;76.54;100303.75;5075004;28;20730;-74
2022/05/04 05:06:43;;;;;;;7.13;4.77;;;;;;;7.58;77.17;100284.66;5074657;28;20699;-75
2022/05/04 05:09:09;;;;;;;6.13;4.70;;;;;;;7.52;77.51;100289.91;5074532;28;20209;-75
2022/05/04 05:11:35;;;;;;;7.80;5.17;;;;;;;7.51;77.60;100281.28;5074568;28;20232;-75
2022/05/04 05:16:46;;;;;;;6.03;4.53;;;;;;;7.59;76.96;100285.50;5058192;28;20206;-74
2022/05/04 05:19:14;;;;;;;10.50;5.27;;;;;;;7.69;76.24;100323.50;5074349;28;20210;-75
2022/05/04 05:21:42;;;;;;;6.23;4.70;;;;;;;7.65;76.93;100316.63;5074451;28;20240;-75
2022/05/04 05:24:08;;;;;;;7.93;4.93;;;;;;;7.74;75.31;100332.16;5074627;28;20298;-75
2022/05/04 05:26:35;;;;;;;10.23;4.37;;;;;;;7.82;73.64;100366.72;5074647;28;20212;-75
2022/05/04 05:29:01;;;;;;;7.00;4.77;;;;;;;7.87;73.26;100395.25;5074863;28;20205;-74
2022/05/04 05:31:27;;;;;;;8.47;5.40;;;;;;;7.93;71.89;100429.00;5074403;28;20231;-74
2022/05/04 05:33:54;;;;;;;15.97;5.67;;;;;;;7.98;71.94;100441.94;5074559;28;20739;-74
2022/05/04 05:36:20;;;;;;;9.57;4.80;;;;;;;8.03;71.92;100453.19;5074160;28;20567;-74
2022/05/04 05:38:48;;;;;;;9.03;6.27;;;;;;;8.08;71.48;100457.44;5074100;28;20622;-74
2022/05/04 05:41:15;;;;;;;8.83;5.17;;;;;;;8.12;70.83;100463.50;5074260;28;20224;-74
2022/05/04 05:43:41;;;;;;;10.40;4.77;;;;;;;8.15;71.02;100476.47;5074340;28;20203;-74
2022/05/04 05:46:07;;;;;;;8.50;4.93;;;;;;;8.16;70.88;100483.38;5065866;28;20208;-74
2022/05/04 05:48:34;;;;;;;9.70;4.60;;;;;;;8.21;70.63;100470.38;5074567;28;20203;-74
2022/05/04 05:51:05;;;;;;;8.23;5.10;;;;;;;8.26;70.36;100479.81;5073147;28;20205;-75
2022/05/04 05:53:31;;;;;;;8.87;4.80;;;;;;;8.29;71.27;100478.97;5074639;28;20275;-74
2022/05/04 05:55:59;;;;;;;6.13;4.10;;;;;;;8.36;71.09;100478.00;5073422;28;20337;-75
2022/05/04 05:58:25;;;;;;;12.27;4.77;;;;;;;8.39;71.00;100470.19;5073505;28;20252;-76
2022/05/04 06:00:52;;;;;;;8.53;4.90;;;;;;;8.45;71.06;100472.75;5070268;28;20200;-75
2022/05/04 06:03:19;;;;;;;8.17;4.63;;;;;;;8.48;70.84;100483.16;5073386;28;20579;-74
2022/05/04 06:05:45;;;;;;;10.43;4.30;;;;;;;8.56;70.69;100483.03;5073513;28;20208;-74
2022/05/04 06:08:12;;;;;;;10.13;5.80;;;;;;;8.58;70.25;100499.50;5070968;28;20250;-74
2022/05/04 06:10:38;;;;;;;9.47;4.93;;;;;;;8.60;69.37;100507.31;5073229;28;20242;-74
2022/05/04 06:13:07;;;;;;;7.00;4.47;;;;;;;8.63;69.87;100510.75;5072943;28;20274;-74
2022/05/04 06:15:34;;;;;;;9.30;4.57;;;;;;;8.68;70.49;100508.97;5070504;28;20210;-74
2022/05/04 06:18:01;;;;;;;11.03;4.87;;;;;;;8.73;69.75;100498.50;5072929;28;20575;-74
2022/05/04 06:20:27;;;;;;;7.37;4.40;;;;;;;8.77;70.43;100514.97;5073052;28;20245;-74
2022/05/04 06:22:54;;;;;;;8.73;4.77;;;;;;;8.83;69.96;100507.94;5069951;28;20709;-74
2022/05/04 06:25:20;;;;;;;12.20;5.13;;;;;;;8.87;70.31;100500.97;5073076;28;20192;-74
2022/05/04 06:27:47;;;;;;;15.07;4.77;;;;;;;8.94;70.38;100493.06;5073155;28;20193;-74
2022/05/04 06:35:43;;;;;;;8.30;4.77;;;;;;;9.07;69.79;100519.81;5071215;28;20226;-74
2022/05/04 06:38:10;;;;;;;6.60;4.50;;;;;;;9.12;69.61;100530.19;5072868;28;20199;-74
2022/05/04 06:40:37;;;;;;;10.03;4.67;;;;;;;9.18;69.18;100531.84;5072707;28;20291;-74
2022/05/04 06:43:04;;;;;;;10.47;4.83;;;;;;;9.22;68.67;100537.00;5072507;28;20227;-74
2022/05/04 06:45:32;;;;;;;5.70;4.00;;;;;;;9.26;69.02;100540.44;5072495;28;20258;-74
2022/05/04 06:47:59;;;;;;;6.47;4.00;;;;;;;9.32;68.51;100559.47;5072254;28;20215;-74
2022/05/04 06:50:26;;;;;;;12.93;4.53;;;;;;;9.35;68.10;100558.56;5072084;28;20364;-74
2022/05/04 06:52:52;;;;;;;9.23;4.33;;;;;;;9.40;68.33;100548.94;5072878;28;20228;-72
2022/05/04 06:55:18;;;;;;;9.10;3.90;;;;;;;9.44;68.27;100565.41;5072865;28;20204;-75
2022/05/04 06:57:45;;;;;;;13.10;4.53;;;;;;;9.51;67.71;100570.53;5072850;28;20204;-74
2022/05/04 07:00:12;;;;;;;7.63;3.77;;;;;;;9.60;67.03;100584.31;5072473;28;20211;-74
2022/05/04 07:02:40;;;;;;;4.70;3.40;;;;;;;9.64;68.12;100572.97;5065855;28;20681;-74
2022/05/04 07:05:07;;;;;;;7.97;2.90;;;;;;;9.66;69.15;100556.44;5067366;28;20639;-75
2022/05/04 07:07:34;;;;;;;7.13;4.57;;;;;;;9.73;67.95;100573.72;5072859;28;20213;-74
2022/05/04 07:10:01;;;;;;;6.13;3.83;;;;;;;9.80;67.42;100582.31;5072507;28;20211;-75
2022/05/04 07:12:28;;;;;;;6.47;3.63;;;;;;;9.86;66.91;100597.88;5072808;28;20228;-73
2022/05/04 07:14:56;;;;;;;7.93;3.67;;;;;;;9.87;66.95;100597.00;5067470;28;20216;-74
2022/05/04 07:17:22;;;;;;;6.40;3.67;;;;;;;9.92;66.82;100609.97;5069061;28;20212;-73
2022/05/04 07:19:50;;;;;;;9.07;3.90;;;;;;;10.01;66.35;100622.00;5072345;28;20212;-73
2022/05/04 07:22:17;;;;;;;7.53;3.80;;;;;;;10.10;66.11;100627.09;5072103;28;20247;-73
2022/05/04 07:24:43;;;;;;;9.00;3.97;;;;;;;10.14;65.05;100644.44;5063355;28;20216;-75
2022/05/04 07:27:11;;;;;;;6.40;3.63;;;;;;;10.19;66.52;100644.34;5072068;28;20204;-75
2022/05/04 07:29:37;;;;;;;6.17;3.50;;;;;;;10.27;66.80;100599.03;5071992;28;20258;-73
2022/05/04 07:32:05;;;;;;;9.87;4.17;;;;;;;10.34;66.08;100629.38;5071961;28;20231;-75
2022/05/04 07:34:31;;;;;;;7.13;3.80;;;;;;;10.42;65.74;100637.09;5072388;28;20205;-73
2022/05/04 07:36:59;;;;;;;6.97;3.93;;;;;;;10.52;67.25;100616.94;5072449;28;20212;-75
2022/05/04 07:42:23;;;;;;;10.13;3.87;;;;;;;10.64;64.16;100657.66;5072138;28;20230;-75
2022/05/04 07:44:51;;;;;;;6.73;4.20;;;;;;;10.65;63.37;100695.94;5072289;28;20266;-75
2022/05/04 07:47:17;;;;;;;8.90;4.10;;;;;;;10.68;63.90;100698.47;5071529;28;20748;-75
2022/05/04 07:49:44;;;;;;;7.00;3.90;;;;;;;10.69;63.90;100695.00;5071567;28;20585;-74
2022/05/04 07:52:12;;;;;;;6.77;3.40;;;;;;;10.66;63.37;100693.31;5071268;28;20271;-75
2022/05/04 07:54:38;;;;;;;7.33;4.60;;;;;;;10.71;63.23;100712.34;5063603;28;20291;-75
2022/05/04 07:57:05;;;;;;;9.13;4.40;;;;;;;10.69;62.48;100726.34;5072224;28;20208;-75
2022/05/04 07:59:32;;;;;;;7.00;3.53;;;;;;;10.74;62.67;100732.34;5071639;28;20212;-75
2022/05/04 08:04:43;;;;;;;5.47;3.70;;;;;;;10.81;62.22;100739.19;5072059;28;20194;-74
2022/05/04 08:07:09;;;;;;;6.63;3.80;;;;;;;10.82;62.19;100758.34;5071824;28;20258;-74
2022/05/04 08:09:37;;;;;;;7.63;3.90;;;;;;;10.86;62.52;100746.94;5072098;28;20201;-75
2022/05/04 08:12:06;;;;;;;7.80;3.80;;;;;;;10.88;62.34;100739.97;5071797;28;20258;-75
2022/05/04 08:14:32;;;;;;;6.67;4.13;;;;;;;10.94;62.47;100732.03;5069065;28;20223;-74
2022/05/04 08:16:59;;;;;;;6.10;4.07;;;;;;;11.01;62.83;100733.66;5064810;28;20213;-74
2022/05/04 08:19:25;;;;;;;7.60;4.47;;;;;;;11.06;62.56;100728.34;5071283;28;20205;-74
2022/05/04 08:21:52;;;;;;;4.80;4.20;;;;;;;11.07;62.43;100730.94;5071316;28;20281;-75
2022/05/04 08:24:18;;;;;;;7.97;4.30;;;;;;;11.06;62.29;100739.69;5071901;28;20304;-74
2022/05/04 08:26:46;;;;;;;5.80;3.90;;;;;;;11.10;62.69;100732.66;5071605;28;20207;-74
2022/05/04 08:29:12;;;;;;;5.90;3.83;;;;;;;11.16;62.23;100736.91;5071156;28;20547;-75
2022/05/04 08:31:39;;;;;;;9.57;5.13;;;;;;;11.13;62.72;100741.28;5071407;28;20630;-75
2022/05/04 08:34:06;;;;;;;8.83;4.97;;;;;;;11.19;62.82;100729.88;5071602;28;20200;-75
2022/05/04 08:36:33;;;;;;;7.37;4.47;;;;;;;11.24;63.05;100725.47;5071556;28;20705;-74
2022/05/04 08:38:59;;;;;;;6.87;3.73;;;;;;;11.30;63.13;100699.22;5071190;28;20208;-75
2022/05/04 08:41:27;;;;;;;6.77;4.30;;;;;;;11.41;62.57;100724.28;5071388;28;20224;-75
2022/05/04 08:43:58;;;;;;;8.07;4.50;;;;;;;11.47;62.42;100735.50;5071349;28;20278;-75
2022/05/04 08:46:26;;;;;;;8.00;3.97;;;;;;;11.58;61.55;100739.69;5062944;28;20219;-75
2022/05/04 08:48:53;;;;;;;7.57;4.40;;;;;;;11.58;61.92;100753.63;5070843;28;20262;-74
2022/05/04 08:51:21;;;;;;;6.23;4.10;;;;;;;11.61;61.67;100763.16;5071119;28;20298;-75
2022/05/04 08:53:49;;;;;;;6.60;4.43;;;;;;;11.64;61.50;100766.56;5071484;28;20205;-75
2022/05/04 08:56:16;;;;;;;5.93;4.33;;;;;;;11.55;61.81;100768.50;5071754;28;20209;-75
2022/05/04 08:58:43;;;;;;;8.03;4.50;;;;;;;11.54;62.93;100731.03;5071516;28;20912;-75
2022/05/04 09:01:11;;;;;;;10.20;4.70;;;;;;;11.68;61.98;100736.84;5071023;28;20235;-74
2022/05/04 09:03:38;;;;;;;8.70;4.43;;;;;;;11.75;61.03;100762.91;5070814;28;20225;-74
2022/05/04 09:06:04;;;;;;;6.57;4.13;;;;;;;11.75;62.77;100758.53;5071440;28;20209;-75
2022/05/04 09:08:31;;;;;;;10.17;4.73;;;;;;;11.79;62.75;100743.63;5071115;28;20691;-75
2022/05/04 09:10:59;;;;;;;11.10;5.70;;;;;;;11.87;62.25;100736.50;5070874;28;20254;-74
2022/05/04 09:13:26;;;;;;;8.07;4.63;;;;;;;11.99;61.48;100740.66;5062208;28;20207;-74
2022/05/04 09:15:56;;;;;;;8.03;4.40;;;;;;;12.08;62.16;100745.72;5070644;28;20678;-75
2022/05/04 09:18:23;;;;;;;4.93;3.97;;;;;;;12.20;62.13;100744.59;5071274;28;20205;-76
2022/05/04 09:20:52;;;;;;;8.10;4.90;;;;;;;12.24;61.53;100734.03;5070846;28;20538;-76
2022/05/04 09:23:19;;;;;;;8.93;5.03;;;;;;;12.29;61.39;100744.44;5071026;28;20228;-76
2022/05/04 09:25:49;;;;;;;7.37;4.30;;;;;;;12.38;60.96;100744.22;5074156;28;20244;-77
2022/05/04 09:28:15;;;;;;;8.17;4.53;;;;;;;12.50;61.73;100753.56;5074818;28;20240;-76
2022/05/04 09:30:46;;;;;;;6.03;4.30;;;;;;;12.73;62.16;100660.53;5074077;28;20270;-76
2022/05/04 09:33:17;;;;;;;8.10;4.10;;;;;;;12.78;60.18;100748.56;5074695;28;20226;-77
2022/05/04 09:35:45;;;;;;;9.10;4.20;;;;;;;12.77;59.14;100790.53;5084292;22;20701;-74
2022/05/04 09:46:36;;;;;;;6.83;4.40;;;;;;;12.97;59.64;100783.06;5074123;28;20201;-74
2022/05/04 09:49:09;;;;;;;5.87;4.67;;;;;;;13.08;59.25;100803.75;5064613;28;20258;-74
2022/05/04 09:51:38;;;;;;;7.87;4.07;;;;;;;13.21;59.18;100818.31;5072814;28;20616;-75
2022/05/04 09:54:16;;;;;;;8.10;4.83;;;;;;;13.29;58.89;100823.38;5064090;28;20304;-74
2022/05/04 09:56:43;;;;;;;5.77;4.47;;;;;;;13.28;58.25;100838.25;5062119;28;20206;-74
2022/05/04 09:59:10;;;;;;;7.07;4.47;;;;;;;13.28;57.71;100835.63;5053986;28;20214;-74
2022/05/04 10:01:37;;;;;;;6.57;4.97;;;;;;;13.27;58.34;100839.13;5053516;28;20315;-73
2022/05/04 10:04:04;;;;;;;7.23;4.80;;;;;;;13.31;58.63;100834.72;5053902;28;20221;-74
2022/05/04 10:06:33;;;;;;;8.27;4.83;;;;;;;13.31;57.78;100838.19;5054022;28;20248;-74
2022/05/04 10:09:01;;;;;;;5.83;4.90;;;;;;;13.37;58.34;100838.97;5053945;28;20219;-74
2022/05/04 10:11:30;;;;;;;7.33;4.90;;;;;;;13.48;58.29;100832.56;5053806;28;20313;-74
2022/05/04 10:14:02;;;;;;;6.97;5.40;;;;;;;13.51;58.11;100831.59;5059901;28;20199;-74
2022/05/04 10:16:32;;;;;;;5.30;4.80;;;;;;;13.57;57.66;100834.06;5056299;28;20253;-74
2022/05/04 10:19:02;;;;;;;9.23;4.73;;;;;;;13.65;58.02;100847.00;5053380;28;20281;-74
2022/05/04 10:21:29;;;;;;;7.33;5.00;;;;;;;13.72;57.25;100847.72;5053629;28;20324;-73
2022/05/04 10:24:00;;;;;;;5.33;4.80;;;;;;;13.81;57.02;100845.69;5053633;28;20280;-74
2022/05/04 10:26:35;;;;;;;8.57;5.00;;;;;;;13.85;57.45;100857.00;5053733;28;20225;-74
2022/05/04 10:32:07;;;;;;;7.10;5.17;;;;;;;13.97;57.60;100848.78;5053499;28;20425;-74
2022/05/04 10:34:33;;;;;;;8.33;4.80;;;;;;;14.05;59.87;100832.84;5053020;28;20252;-74
2022/05/04 10:37:00;;;;;;;6.50;4.80;;;;;;;14.21;58.45;100804.41;5072934;28;20191;-74
2022/05/04 10:39:26;;;;;;;7.93;4.47;;;;;;;14.43;57.44;100818.66;5072950;28;20245;-74
2022/05/04 10:41:54;;;;;;;11.30;5.10;;;;;;;14.49;55.97;100855.25;5073425;28;20244;-74
2022/05/04 10:44:54;;;;;;;6.17;5.00;;;;;;;14.60;55.77;100890.91;5073006;28;20227;-74
2022/05/04 10:47:21;;;;;;;5.20;4.10;;;;;;;14.61;55.32;100890.00;5073023;28;20209;-74
2022/05/04 10:49:59;;;;;;;7.30;4.47;;;;;;;14.73;55.87;100886.13;5073199;28;20204;-74
2022/05/04 10:52:31;;;;;;;6.80;5.90;;;;;;;14.87;55.95;100884.00;5072791;28;20720;-74
2022/05/04 10:55:01;;;;;;;5.97;4.80;;;;;;;14.95;55.18;100900.38;5072853;28;20211;-74
2022/05/04 10:57:41;;;;;;;5.20;4.70;;;;;;;14.55;55.34;100904.13;5071374;28;20528;-74
2022/05/04 11:00:10;;;;;;;9.37;5.23;;;;;;;14.84;57.62;100863.03;5060951;28;20261;-74
2022/05/04 11:02:37;;;;;;;7.77;5.30;;;;;;;15.11;57.96;100814.03;5053066;28;20280;-74
2022/05/04 11:05:12;;;;;;;7.83;5.17;;;;;;;15.42;55.95;100857.72;5052835;28;20285;-74
2022/05/04 11:07:38;;;;;;;5.30;4.63;;;;;;;15.62;55.45;100868.47;5052863;28;20280;-74
2022/05/04 11:10:05;;;;;;;5.83;4.60;;;;;;;15.84;54.61;100892.34;5051982;28;20677;-74
2022/05/04 11:12:33;;;;;;;7.80;5.60;;;;;;;16.01;52.67;100930.41;5052326;28;20721;-74
2022/05/04 11:15:00;;;;;;;8.47;5.33;;;;;;;15.82;53.97;100977.56;5052651;28;20213;-74
2022/05/04 11:17:32;;;;;;;6.30;4.73;;;;;;;16.18;52.90;100943.88;5060598;28;20669;-74
2022/05/04 11:19:58;;;;;;;7.00;5.03;;;;;;;16.49;52.52;100956.00;5052147;28;20262;-74
2022/05/04 11:22:25;;;;;;;9.67;5.03;;;;;;;16.80;50.82;100999.69;5052508;28;20793;-74
2022/05/04 11:24:51;;;;;;;7.83;4.97;;;;;;;17.04;51.65;101030.47;5052197;28;20636;-74
2022/05/04 11:27:19;;;;;;;5.67;5.07;;;;;;;17.24;49.94;101034.16;5052344;28;20300;-74
2022/05/04 11:29:46;;;;;;;6.23;5.10;;;;;;;17.74;48.83;101073.66;5052152;28;20704;-74
2022/05/04 11:32:19;;;;;;;7.67;5.37;;;;;;;18.72;46.67;101134.06;5052012;28;20228;-74
2022/05/04 11:34:46;;;;;;;7.87;5.10;;;;;;;20.12;43.06;101252.47;5052203;28;20212;-73
2022/05/04 11:37:14;;;;;;;9.17;5.30;;;;;;;21.34;41.90;101346.63;5052852;28;20195;-73
2022/05/04 11:39:42;;;;;;;5.73;5.13;;;;;;;22.64;39.35;101479.22;5051595;28;20255;-73
2022/05/04 11:42:09;;;;;;;6.37;4.67;;;;;;;23.48;37.90;101537.72;5052355;28;20224;-72
2022/05/04 11:44:38;;;;;;;6.00;4.83;;;;;;;24.29;35.36;101616.75;5053765;28;20708;-74
2022/05/04 11:47:05;;;;;;;5.97;5.40;;;;;;;24.75;34.27;101707.53;5065633;28;20214;-74
2022/05/04 11:49:34;;;;;;;6.03;5.53;;;;;;;24.84;33.30;101724.84;5051489;28;20558;-74
2022/05/04 11:52:02;;;;;;;5.40;4.97;;;;;;;24.58;33.21;101745.91;5051988;28;20563;-74
2022/05/04 11:54:28;;;;;;;4.97;4.37;;;;;;;24.15;34.89;101717.13;5052190;28;20293;-74
2022/05/04 11:56:55;;;;;;;5.03;4.63;;;;;;;23.70;35.69;101659.13;5052180;28;20209;-74
2022/05/04 11:59:21;;;;;;;6.67;5.50;;;;;;;23.29;36.03;101639.13;5051257;28;20704;-73
2022/05/04 12:01:48;;;;;;;7.97;5.00;;;;;;;22.14;37.34;101615.63;5051711;28;20654;-73
2022/05/04 12:04:15;;;;;;;6.70;5.17;;;;;;;22.45;37.48;101537.00;5051628;28;20227;-74
2022/05/04 12:06:44;;;;;;;5.90;4.83;;;;;;;23.55;36.01;101539.09;5051572;28;20267;-74
2022/05/04 12:09:12;;;;;;;6.03;5.40;;;;;;;24.07;34.55;101593.13;5058818;28;20216;-74